Time;durP1;ratioP1;P1;durP2;ratioP2;P2;SDS_P1;SDS_P2;PMS_P1;PMS_P2;Temp;Humidity;BMP_temperature;BMP_pressure;BME280_temperature;BME280_humidity;BME280_pressure;Samples;Min_cycle;Max_cycle;Signal;HPM_P1;HPM_P2
2022/04/18 00:01:37;;;;;;;17.40;9.25;;;;;;;5.57;76.44;102160.69;10318330;28;20046;-81
2022/04/18 00:06:37;;;;;;;15.80;8.68;;;;;;;5.52;78.03;102165.84;10347522;28;20054;-80
2022/04/18 00:11:38;;;;;;;19.15;10.88;;;;;;;5.44;78.14;102153.16;10346657;28;20077;-81
2022/04/18 00:16:39;;;;;;;16.27;9.13;;;;;;;5.49;78.18;102158.91;10324444;28;20151;-81
2022/04/18 00:21:39;;;;;;;16.35;10.02;;;;;;;5.36;78.43;102132.25;10287865;28;20038;-81
2022/04/18 00:26:40;;;;;;;20.98;9.38;;;;;;;5.37;79.90;102138.56;10303546;28;20070;-82
2022/04/18 00:31:41;;;;;;;18.55;10.32;;;;;;;5.37;81.75;102139.41;10304783;28;20054;-81
2022/04/18 00:36:41;;;;;;;16.63;9.43;;;;;;;5.27;81.88;102122.44;10307000;28;20089;-81
2022/04/18 00:41:42;;;;;;;17.38;9.82;;;;;;;5.28;83.25;102139.69;10274147;28;20049;-80
2022/04/18 00:46:42;;;;;;;16.92;10.63;;;;;;;5.15;83.67;102129.44;10306722;28;20118;-81
2022/04/18 00:51:43;;;;;;;17.13;9.48;;;;;;;5.18;85.25;102129.88;10304876;28;20043;-81
2022/04/18 00:56:44;;;;;;;15.68;10.15;;;;;;;5.13;86.26;102139.69;10288353;28;20038;-82
2022/04/18 01:01:45;;;;;;;19.40;9.55;;;;;;;5.05;86.39;102130.53;10288466;28;20042;-81
2022/04/18 01:06:45;;;;;;;17.33;9.70;;;;;;;5.02;88.16;102128.22;10305080;28;20030;-81
2022/04/18 01:11:46;;;;;;;20.63;10.85;;;;;;;4.85;89.09;102102.09;10306744;28;20035;-81
2022/04/18 01:16:46;;;;;;;20.55;11.10;;;;;;;4.91;90.23;102125.09;10272584;28;20038;-81
2022/04/18 01:21:47;;;;;;;20.63;10.80;;;;;;;4.86;91.07;102117.47;10305685;28;20078;-81
2022/04/18 01:32:07;;;;;;;18.58;10.13;;;;;;;4.71;94.86;102105.66;10304131;28;20026;-81
2022/04/18 01:37:07;;;;;;;18.50;10.77;;;;;;;4.68;95.57;102111.50;10312974;28;20031;-80
2022/04/18 01:42:07;;;;;;;19.35;10.63;;;;;;;4.64;96.61;102100.94;10313431;28;20070;-81
2022/04/18 01:47:08;;;;;;;22.50;11.35;;;;;;;4.65;96.29;102107.22;10312481;28;20519;-81
2022/04/18 01:52:09;;;;;;;22.60;10.73;;;;;;;4.58;98.06;102101.69;10348656;28;20049;-81
2022/04/18 01:57:09;;;;;;;19.05;11.40;;;;;;;4.50;98.05;102099.03;10352416;28;20045;-81
2022/04/18 02:02:10;;;;;;;21.88;11.02;;;;;;;4.54;98.49;102094.91;10352816;28;20050;-81
2022/04/18 02:07:11;;;;;;;18.20;10.77;;;;;;;4.51;99.66;102094.44;10353154;28;20054;-81
2022/04/18 02:12:11;;;;;;;19.75;10.23;;;;;;;4.44;100.00;102086.13;10352733;28;20058;-81
2022/04/18 02:17:12;;;;;;;21.13;11.32;;;;;;;4.29;100.00;102075.19;10343836;28;20135;-81
2022/04/18 02:22:13;;;;;;;21.27;11.23;;;;;;;4.28;100.00;102080.81;10331855;28;20062;-81
2022/04/18 02:27:13;;;;;;;17.88;10.65;;;;;;;4.21;100.00;102078.81;10351409;28;20022;-82
2022/04/18 02:37:32;;;;;;;19.90;10.98;;;;;;;4.11;100.00;102061.00;10350844;28;20075;-80
2022/04/18 02:42:33;;;;;;;19.85;10.63;;;;;;;4.12;100.00;102065.44;10349804;28;20042;-80
2022/04/18 02:47:33;;;;;;;24.23;11.73;;;;;;;4.10;100.00;102052.00;10348512;28;20023;-80
2022/04/18 02:52:34;;;;;;;18.55;10.70;;;;;;;4.15;100.00;102052.28;10331696;28;20039;-81
2022/04/18 02:57:35;;;;;;;19.23;10.23;;;;;;;4.15;100.00;102043.25;10320720;28;20046;-80
2022/04/18 03:02:36;;;;;;;21.73;11.10;;;;;;;3.93;100.00;102007.69;10338660;28;20050;-81
2022/04/18 03:07:36;;;;;;;19.10;9.60;;;;;;;4.07;100.00;102036.00;10318538;28;20035;-80
2022/04/18 03:12:39;;;;;;;20.17;10.30;;;;;;;4.07;100.00;102033.28;10348333;28;20073;-80
2022/04/18 03:17:40;;;;;;;19.73;9.95;;;;;;;3.98;100.00;102020.75;10343720;28;20047;-80
2022/04/18 03:22:40;;;;;;;19.10;10.00;;;;;;;4.01;100.00;102032.16;10339398;28;20041;-81
2022/04/18 03:27:41;;;;;;;18.33;9.80;;;;;;;3.99;100.00;102030.63;10347704;28;20027;-81
2022/04/18 03:32:41;;;;;;;23.08;11.05;;;;;;;3.89;100.00;102024.59;10349431;28;20100;-81
2022/04/18 03:43:01;;;;;;;18.38;10.10;;;;;;;3.83;100.00;102027.00;10329216;28;20043;-79
2022/04/18 03:48:01;;;;;;;18.75;10.02;;;;;;;3.37;100.00;101958.91;10306134;28;20034;-80
2022/04/18 03:53:01;;;;;;;18.08;10.52;;;;;;;3.64;100.00;102002.97;10307884;28;20039;-80
2022/04/18 03:58:02;;;;;;;18.85;10.77;;;;;;;3.43;100.00;101990.84;10322974;28;20038;-80
2022/04/18 04:03:02;;;;;;;18.10;10.90;;;;;;;3.49;100.00;102012.94;10307138;28;20054;-80
2022/04/18 04:08:03;;;;;;;18.55;10.52;;;;;;;3.50;100.00;102022.81;10307649;28;20093;-79
2022/04/18 04:13:04;;;;;;;17.15;9.35;;;;;;;3.42;100.00;102019.09;10342239;28;20130;-80
2022/04/18 04:18:04;;;;;;;19.73;10.00;;;;;;;3.32;100.00;102015.75;10345268;28;20042;-80
2022/04/18 04:23:05;;;;;;;20.10;11.77;;;;;;;3.19;100.00;101993.72;10347146;28;20041;-80
2022/04/18 04:28:05;;;;;;;20.85;11.20;;;;;;;3.28;100.00;102010.84;10346189;28;20037;-80
2022/04/18 04:33:06;;;;;;;18.60;10.88;;;;;;;3.21;100.00;102016.16;10342533;28;20478;-79
2022/04/18 04:38:06;;;;;;;19.42;12.70;;;;;;;3.00;100.00;101995.84;10305890;28;20034;-80
2022/04/18 04:43:07;;;;;;;24.98;13.65;;;;;;;3.05;100.00;102005.34;10322747;28;20030;-80
2022/04/18 04:48:07;;;;;;;19.70;11.45;;;;;;;3.16;100.00;102013.09;10344628;28;20035;-80
2022/04/18 04:53:08;;;;;;;24.33;12.38;;;;;;;3.25;100.00;102005.75;10346652;28;20050;-80
2022/04/18 04:58:09;;;;;;;23.08;12.68;;;;;;;3.26;100.00;101991.94;10345420;28;20065;-80
2022/04/18 05:03:10;;;;;;;21.95;12.40;;;;;;;3.38;100.00;102009.56;10320671;28;20066;-81
2022/04/18 05:08:10;;;;;;;24.58;12.93;;;;;;;3.44;100.00;102008.88;10306217;28;20046;-81
2022/04/18 05:13:11;;;;;;;18.88;12.02;;;;;;;3.53;100.00;102014.25;10312805;28;20106;-81
2022/04/18 05:18:11;;;;;;;19.70;11.48;;;;;;;3.58;100.00;102017.31;10312252;28;20045;-82
2022/04/18 05:23:15;;;;;;;19.33;11.40;;;;;;;3.62;100.00;102013.19;10313749;28;20034;-81
2022/04/18 05:28:15;;;;;;;21.25;11.25;;;;;;;3.70;100.00;102010.41;10328280;28;20030;-82
2022/04/18 05:33:16;;;;;;;25.27;13.82;;;;;;;3.80;100.00;102015.59;10328098;28;20502;-81
2022/04/18 05:38:16;;;;;;;21.00;11.90;;;;;;;3.97;100.00;102021.78;10311813;28;20054;-79
2022/04/18 05:43:17;;;;;;;23.55;13.90;;;;;;;4.10;100.00;102000.22;10310215;28;20066;-79
2022/04/18 05:48:17;;;;;;;31.05;14.30;;;;;;;4.63;100.00;102022.88;10327192;28;20047;-79
2022/04/18 05:53:18;;;;;;;23.58;13.13;;;;;;;5.03;100.00;102023.44;10311271;28;20301;-79
2022/04/18 05:58:18;;;;;;;20.80;12.40;;;;;;;5.37;100.00;102019.22;10311057;28;20046;-80
2022/04/18 06:03:19;;;;;;;22.45;12.77;;;;;;;5.71;100.00;102020.47;10312821;28;20038;-80
2022/04/18 06:08:19;;;;;;;24.73;12.80;;;;;;;6.03;100.00;102005.47;10312245;28;20030;-79
2022/04/18 06:13:20;;;;;;;19.88;12.20;;;;;;;6.36;100.00;102013.09;10309465;28;20042;-80
2022/04/18 06:18:20;;;;;;;19.20;11.10;;;;;;;6.71;100.00;102004.09;10331078;28;20073;-79
2022/04/18 06:23:21;;;;;;;21.60;12.50;;;;;;;7.00;100.00;102006.56;10350429;28;20038;-78
2022/04/18 06:28:21;;;;;;;21.35;11.68;;;;;;;7.33;100.00;101992.16;10351637;28;20033;-79
2022/04/18 06:33:22;;;;;;;19.67;10.68;;;;;;;7.61;100.00;101993.97;10352274;28;20081;-79
2022/04/18 06:38:24;;;;;;;22.33;10.80;;;;;;;8.01;100.00;101999.50;10351756;28;20035;-80
2022/04/18 06:43:24;;;;;;;17.83;10.05;;;;;;;8.38;100.00;102002.66;10327429;28;20038;-78
2022/04/18 06:48:25;;;;;;;15.32;9.13;;;;;;;8.78;97.69;101997.13;10292420;28;20023;-78
2022/04/18 06:53:25;;;;;;;16.80;10.15;;;;;;;9.08;95.46;101995.56;10310390;28;20039;-78
2022/04/18 06:58:26;;;;;;;14.98;9.50;;;;;;;9.26;93.39;101997.63;10310275;28;20030;-79
2022/04/18 07:03:27;;;;;;;16.58;8.27;;;;;;;9.40;91.34;101979.16;10310805;28;20042;-78
2022/04/18 07:08:27;;;;;;;12.93;7.85;;;;;;;9.65;88.26;101994.88;10308186;28;20053;-80
2022/04/18 07:13:28;;;;;;;11.18;7.45;;;;;;;9.84;86.53;101993.09;10335893;28;20049;-79
2022/04/18 07:18:29;;;;;;;15.48;7.90;;;;;;;10.02;85.92;101984.03;10335575;28;20466;-79
2022/04/18 07:23:29;;;;;;;13.68;8.63;;;;;;;10.24;84.65;101976.25;10334174;28;20034;-81
2022/04/18 07:28:30;;;;;;;11.80;7.90;;;;;;;10.49;84.84;101979.00;10333868;28;20041;-78
2022/04/18 07:33:30;;;;;;;13.90;8.18;;;;;;;10.72;85.31;101988.53;10362579;28;20034;-79
2022/04/18 07:38:49;;;;;;;11.48;7.30;;;;;;;10.83;82.01;101979.50;10373768;28;20041;-79
2022/04/18 07:43:50;;;;;;;13.15;8.13;;;;;;;11.01;79.92;101965.72;10381649;28;20049;-79
2022/04/18 07:48:51;;;;;;;11.88;7.50;;;;;;;11.25;80.00;101957.59;10386312;28;20026;-79
2022/04/18 07:53:51;;;;;;;11.27;6.57;;;;;;;11.45;78.28;101949.03;10350002;28;20032;-79
2022/04/18 07:58:52;;;;;;;10.10;5.53;;;;;;;11.66;73.17;101925.63;10385526;28;20026;-78
2022/04/18 08:03:53;;;;;;;9.50;6.40;;;;;;;11.86;71.31;101920.59;10381422;28;20113;-78
2022/04/18 08:08:55;;;;;;;10.23;5.70;;;;;;;12.00;68.82;101926.78;10385399;28;20054;-79
2022/04/18 08:13:55;;;;;;;10.00;6.15;;;;;;;12.22;67.16;101929.81;10367573;28;20061;-80
2022/04/18 08:18:56;;;;;;;10.70;5.80;;;;;;;12.41;66.11;101929.69;10352388;28;20057;-78
2022/04/18 08:23:57;;;;;;;9.63;6.32;;;;;;;12.62;66.13;101926.28;10385894;28;20060;-79
2022/04/18 08:28:57;;;;;;;11.20;6.38;;;;;;;12.96;68.81;101934.78;10387288;28;20030;-79
2022/04/18 08:33:58;;;;;;;8.38;5.32;;;;;;;13.32;68.42;101941.03;10386005;28;20041;-79
2022/04/18 08:38:58;;;;;;;10.32;6.35;;;;;;;13.63;66.30;101931.41;10383600;28;20073;-81
2022/04/18 08:43:58;;;;;;;10.15;6.05;;;;;;;13.92;64.91;101909.19;10359922;28;20053;-79
2022/04/18 08:54:18;;;;;;;10.45;6.57;;;;;;;14.21;60.10;101898.03;10348869;28;20035;-79
2022/04/18 08:59:19;;;;;;;7.97;4.97;;;;;;;14.48;59.55;101898.13;10347744;28;20043;-79
2022/04/18 09:04:20;;;;;;;8.93;5.20;;;;;;;14.63;58.32;101886.44;10384738;28;20034;-81
2022/04/18 09:09:27;;;;;;;7.78;4.75;;;;;;;14.85;58.57;101883.69;10334248;28;20051;-80
2022/04/18 09:14:27;;;;;;;7.85;5.50;;;;;;;15.28;59.61;101893.06;10312980;28;20537;-82
2022/04/18 09:19:29;;;;;;;7.60;5.18;;;;;;;15.52;57.43;101894.41;10330982;28;20034;-82
2022/04/18 09:24:34;;;;;;;6.90;4.72;;;;;;;15.51;53.28;101862.19;10314325;28;20031;-82
2022/04/18 09:29:38;;;;;;;6.18;3.83;;;;;;;15.53;54.04;101881.38;10331857;28;20042;-83
2022/04/18 09:34:39;;;;;;;6.65;4.88;;;;;;;15.50;50.69;101838.34;10329875;28;20038;-83
2022/04/18 09:39:44;;;;;;;7.93;5.10;;;;;;;15.89;54.11;101857.53;10313877;28;20034;-83
2022/04/18 09:44:44;;;;;;;7.55;5.28;;;;;;;15.98;51.84;101845.94;10312934;28;20424;-80
2022/04/18 09:49:45;;;;;;;9.75;5.32;;;;;;;16.27;51.71;101863.94;10331608;28;20482;-80
2022/04/18 09:54:55;;;;;;;8.18;4.88;;;;;;;16.56;50.35;101860.75;10332175;28;20080;-82
2022/04/18 09:59:57;;;;;;;8.20;4.72;;;;;;;16.71;51.33;101858.03;10340475;28;20034;-82
2022/04/18 10:04:58;;;;;;;8.60;4.75;;;;;;;17.11;51.36;101850.94;10321089;28;20034;-79
2022/04/18 10:09:58;;;;;;;8.80;4.90;;;;;;;17.42;50.98;101851.00;10321940;28;20034;-77
2022/04/18 10:14:59;;;;;;;6.60;4.90;;;;;;;17.76;50.19;101839.31;10321764;28;20045;-79
2022/04/18 10:20:17;;;;;;;6.68;4.55;;;;;;;18.14;49.21;101840.69;10337732;28;20085;-82
2022/04/18 10:25:36;;;;;;;6.95;4.38;;;;;;;18.35;47.62;101829.47;10354033;28;20030;-82
2022/04/18 10:30:43;;;;;;;6.60;5.00;;;;;;;18.32;44.78;101816.13;10340316;28;20038;-85
2022/04/18 10:35:54;;;;;;;6.70;4.70;;;;;;;17.91;45.40;101800.34;10322386;28;20121;-79
2022/04/18 10:46:20;;;;;;;8.98;4.20;;;;;;;18.32;40.28;101782.69;10336033;28;20041;-85
2022/04/18 10:51:37;;;;;;;6.72;4.80;;;;;;;18.61;40.60;101793.16;10339896;28;20038;-84
2022/04/18 10:57:05;;;;;;;8.00;5.10;;;;;;;18.78;43.08;101801.16;10337494;28;20113;-87
2022/04/18 11:02:06;;;;;;;8.65;4.80;;;;;;;19.19;42.64;101804.53;10320662;28;20039;-81
2022/04/18 11:07:07;;;;;;;6.07;4.35;;;;;;;19.28;39.88;101785.22;10336867;28;20049;-86
2022/04/18 11:12:19;;;;;;;7.15;3.85;;;;;;;19.61;42.66;101796.66;10336411;28;20049;-85
2022/04/18 11:17:39;;;;;;;4.38;3.63;;;;;;;19.96;39.96;101792.72;10335219;28;20054;-84
2022/04/18 11:22:39;;;;;;;7.53;4.45;;;;;;;19.72;35.78;101759.16;10335294;28;20130;-80
2022/04/18 11:27:41;;;;;;;9.65;5.22;;;;;;;19.96;38.96;101781.53;10335378;28;20098;-84
2022/04/18 11:32:44;;;;;;;5.43;4.32;;;;;;;20.08;37.34;101772.75;10335090;28;20039;-86
2022/04/18 11:37:45;;;;;;;7.60;4.72;;;;;;;19.92;36.58;101750.56;10335803;28;20042;-85
2022/04/18 11:42:46;;;;;;;8.98;4.20;;;;;;;20.03;35.20;101753.22;10316943;28;20482;-85
2022/04/18 11:47:47;;;;;;;4.97;4.10;;;;;;;20.72;38.46;101773.38;10336214;28;20030;-85
2022/04/18 11:52:48;;;;;;;6.90;4.28;;;;;;;21.17;36.21;101743.84;10316274;28;20038;-85
2022/04/18 11:57:48;;;;;;;8.50;5.03;;;;;;;21.10;32.37;101729.41;10334080;28;20751;-86
2022/04/18 12:08:09;;;;;;;6.05;4.38;;;;;;;22.21;33.57;101706.34;10332410;28;20026;-81
2022/04/18 12:13:13;;;;;;;8.07;5.30;;;;;;;23.07;30.61;101713.97;10332107;28;20050;-77
2022/04/18 12:18:15;;;;;;;5.53;4.40;;;;;;;23.71;30.34;101708.06;10332441;28;20058;-79
2022/04/18 12:23:23;;;;;;;4.53;3.65;;;;;;;24.23;29.47;101697.06;10333721;28;20030;-80
2022/04/18 12:28:29;;;;;;;6.32;4.55;;;;;;;25.43;29.18;101704.22;10337719;28;20038;-87
2022/04/18 12:33:30;;;;;;;5.17;4.33;;;;;;;26.17;28.23;101686.00;10333503;28;20056;-82
2022/04/18 12:38:38;;;;;;;6.80;4.90;;;;;;;26.07;27.03;101677.94;10325910;28;20305;-81
2022/04/18 12:43:39;;;;;;;5.35;4.60;;;;;;;26.29;27.09;101669.13;10321159;28;20033;-79
2022/04/18 12:48:40;;;;;;;6.03;4.00;;;;;;;26.12;27.62;101680.56;10328466;28;20053;-80
2022/04/18 12:53:58;;;;;;;5.00;4.10;;;;;;;26.85;26.01;101639.81;10331730;28;20054;-80
2022/04/18 12:59:05;;;;;;;5.90;5.30;;;;;;;27.13;25.57;101646.50;10333974;28;20033;-79
2022/04/18 13:04:19;;;;;;;6.05;4.88;;;;;;;27.22;27.09;101656.91;10345383;28;20110;-79
2022/04/18 13:09:19;;;;;;;7.80;5.40;;;;;;;26.97;25.02;101586.19;10360340;28;20038;-80
2022/04/18 13:14:19;;;;;;;4.65;3.88;;;;;;;26.11;24.50;101616.84;10385073;28;20034;-80
2022/04/18 13:19:20;;;;;;;6.07;4.50;;;;;;;26.52;25.22;101632.94;10383909;28;20467;-79
2022/04/18 13:24:20;;;;;;;6.63;4.18;;;;;;;26.19;23.04;101610.31;10351868;28;20018;-79
2022/04/18 13:29:21;;;;;;;5.97;4.50;;;;;;;26.15;24.95;101618.63;10387497;28;20048;-78
2022/04/18 13:34:22;;;;;;;5.95;4.28;;;;;;;26.55;26.55;101631.44;10389183;28;20102;-78
2022/04/18 13:39:22;;;;;;;5.68;5.10;;;;;;;26.59;25.05;101607.00;10392407;28;20033;-80
2022/04/18 13:44:23;;;;;;;4.85;4.35;;;;;;;27.41;27.47;101623.28;10385661;28;20520;-80
2022/04/18 13:49:23;;;;;;;6.28;4.85;;;;;;;27.57;24.86;101612.91;10392557;28;20018;-81
2022/04/18 13:54:24;;;;;;;6.00;4.35;;;;;;;28.01;25.67;101620.00;10391648;28;20474;-80
2022/04/18 13:59:25;;;;;;;7.35;5.00;;;;;;;28.00;25.42;101610.69;10392848;28;20218;-80
2022/04/18 14:04:25;;;;;;;8.65;5.40;;;;;;;28.10;25.33;101609.38;10392078;28;20033;-81
2022/04/18 14:09:26;;;;;;;6.90;4.45;;;;;;;28.11;26.96;101611.88;10389976;28;20458;-80
2022/04/18 14:25:05;;;;;;;5.75;4.22;;;;;;;28.61;24.43;101575.75;10387050;28;20026;-79
2022/04/18 14:30:06;;;;;;;5.68;5.18;;;;;;;28.84;24.04;101586.50;10373516;28;20076;-79
2022/04/18 14:35:07;;;;;;;6.15;5.38;;;;;;;28.66;24.00;101558.47;10383610;28;20037;-82
2022/04/18 14:40:08;;;;;;;6.20;5.60;;;;;;;28.78;23.54;101564.06;10372246;28;20065;-82
2022/04/18 14:45:09;;;;;;;7.15;5.43;;;;;;;29.07;25.41;101584.69;10388001;28;20026;-83
2022/04/18 14:50:09;;;;;;;7.35;5.13;;;;;;;28.62;24.44;101574.53;10390254;28;20457;-81
2022/04/18 14:55:10;;;;;;;6.75;5.00;;;;;;;28.57;25.71;101564.31;10390752;28;20053;-83
2022/04/18 15:00:11;;;;;;;6.75;5.80;;;;;;;28.80;25.06;101568.56;10386459;28;20030;-75
2022/04/18 15:05:11;;;;;;;5.70;5.15;;;;;;;29.09;24.74;101559.63;10385375;28;20042;-73
2022/04/18 15:10:13;;;;;;;6.85;5.68;;;;;;;29.32;24.75;101550.53;10387366;28;20038;-77
2022/04/18 15:15:14;;;;;;;8.57;6.00;;;;;;;29.56;23.43;101538.97;10384022;28;20060;-74
2022/04/18 15:20:14;;;;;;;7.43;5.80;;;;;;;29.58;24.84;101547.94;10344469;28;20069;-74
2022/04/18 15:25:14;;;;;;;10.65;5.63;;;;;;;29.71;22.78;101516.63;10348973;28;20390;-73
2022/04/18 15:35:34;;;;;;;7.88;5.88;;;;;;;29.77;24.23;101543.53;10346154;28;20038;-74
2022/04/18 15:40:35;;;;;;;6.47;5.78;;;;;;;29.68;23.09;101528.69;10346500;28;20044;-85
2022/04/18 15:45:35;;;;;;;6.47;5.35;;;;;;;29.76;23.32;101536.19;10346801;28;20026;-75
2022/04/18 15:50:37;;;;;;;8.57;5.60;;;;;;;29.91;23.21;101529.69;10339128;28;20030;-74
2022/04/18 15:55:38;;;;;;;6.78;5.22;;;;;;;29.95;23.16;101530.56;10342730;28;20050;-76
2022/04/18 16:00:38;;;;;;;8.68;5.13;;;;;;;30.07;23.38;101528.78;10344915;28;20051;-81
2022/04/18 16:05:42;;;;;;;7.75;5.70;;;;;;;30.00;22.62;101515.25;10327873;28;20406;-77
2022/04/18 16:10:42;;;;;;;6.25;5.05;;;;;;;29.75;23.41;101511.88;10306461;28;20053;-77
2022/04/18 16:15:43;;;;;;;6.80;5.28;;;;;;;29.37;24.80;101521.88;10307278;28;20066;-78
2022/04/18 16:20:43;;;;;;;5.78;4.70;;;;;;;29.05;23.86;101516.19;10328654;28;20030;-77
2022/04/18 16:25:44;;;;;;;6.57;4.38;;;;;;;28.24;24.32;101510.72;10345835;28;20441;-77
2022/04/18 16:36:04;;;;;;;4.60;4.00;;;;;;;28.16;24.53;101511.72;10339756;28;20038;-78
2022/04/18 16:46:24;;;;;;;5.60;3.67;;;;;;;27.22;24.33;101490.13;10342969;28;20027;-78
2022/04/18 16:51:24;;;;;;;4.85;3.08;;;;;;;26.36;26.63;101502.06;10344861;28;20458;-77
2022/04/18 16:56:25;;;;;;;4.38;3.15;;;;;;;24.53;26.79;101497.44;10345691;28;20034;-77
2022/04/18 17:01:25;;;;;;;4.60;3.38;;;;;;;23.13;28.59;101491.66;10344531;28;20031;-74
2022/04/18 17:06:26;;;;;;;5.47;3.80;;;;;;;22.43;29.68;101503.59;10348971;28;20244;-74
2022/04/18 17:11:26;;;;;;;4.82;3.75;;;;;;;21.79;31.09;101504.56;10352336;28;20053;-76
2022/04/18 17:16:29;;;;;;;4.65;2.90;;;;;;;21.06;32.59;101525.94;10352240;28;20038;-76
2022/04/18 17:21:29;;;;;;;5.90;2.80;;;;;;;20.61;32.94;101532.09;10352402;28;20038;-77
2022/04/18 17:26:30;;;;;;;5.57;3.38;;;;;;;20.03;33.83;101527.69;10352446;28;20041;-77
2022/04/18 17:31:31;;;;;;;7.50;3.15;;;;;;;19.29;34.79;101533.66;10342533;28;20030;-79
2022/04/18 17:36:33;;;;;;;4.63;2.80;;;;;;;18.53;35.87;101526.88;10311199;28;20047;-78
2022/04/18 17:41:33;;;;;;;4.70;2.92;;;;;;;17.98;38.48;101557.66;10326556;28;20125;-78
2022/04/18 17:46:34;;;;;;;4.32;2.65;;;;;;;17.39;40.69;101559.31;10310344;28;20476;-77
2022/04/18 17:51:34;;;;;;;5.43;2.63;;;;;;;16.86;43.60;101561.66;10313048;28;20027;-77
2022/04/18 17:56:35;;;;;;;3.00;2.03;;;;;;;16.46;45.16;101582.75;10310561;28;20468;-77
2022/04/18 18:01:35;;;;;;;5.32;2.60;;;;;;;16.09;46.25;101581.03;10325696;28;20034;-77
2022/04/18 18:06:36;;;;;;;4.25;1.80;;;;;;;15.73;46.72;101580.94;10351196;28;20034;-77
2022/04/18 18:11:37;;;;;;;2.90;1.80;;;;;;;15.44;48.01;101584.09;10327995;28;20035;-77
2022/04/18 18:16:37;;;;;;;4.90;2.47;;;;;;;15.17;49.53;101588.91;10337074;28;20192;-77
2022/04/18 18:21:38;;;;;;;4.75;3.10;;;;;;;14.89;51.33;101599.28;10351229;28;20032;-77
2022/04/18 18:26:38;;;;;;;3.67;2.15;;;;;;;14.60;51.90;101590.47;10351048;28;20042;-76
2022/04/18 18:31:39;;;;;;;4.65;1.83;;;;;;;14.37;52.57;101594.38;10350888;28;20405;-76
2022/04/18 18:36:39;;;;;;;3.83;2.25;;;;;;;14.13;53.56;101600.22;10351626;28;20500;-77
2022/04/18 18:41:40;;;;;;;4.60;2.65;;;;;;;13.88;54.83;101604.38;10351051;28;20043;-78
2022/04/18 18:46:41;;;;;;;7.05;2.50;;;;;;;13.64;56.20;101612.09;10350007;28;20064;-77
2022/04/18 18:57:00;;;;;;;4.43;1.95;;;;;;;13.19;56.73;101615.00;10350123;28;20030;-77
2022/04/18 19:02:01;;;;;;;4.72;2.50;;;;;;;13.02;57.92;101632.50;10348634;28;20038;-77
2022/04/18 19:07:01;;;;;;;3.45;2.47;;;;;;;12.88;57.34;101631.16;10348971;28;20038;-77
2022/04/18 19:12:02;;;;;;;4.50;2.03;;;;;;;12.74;57.99;101622.34;10349005;28;20069;-77
2022/04/18 19:27:40;;;;;;;6.38;2.47;;;;;;;12.39;59.13;101639.13;10348489;28;20041;-77
2022/04/18 19:32:41;;;;;;;3.72;2.28;;;;;;;12.29;58.51;101634.25;10348681;28;20030;-77
2022/04/18 19:37:42;;;;;;;6.28;2.53;;;;;;;11.93;58.94;101580.25;10348636;28;20089;-77
2022/04/18 19:42:43;;;;;;;4.97;2.25;;;;;;;12.10;60.55;101622.56;10346533;28;20450;-77
2022/04/18 19:47:43;;;;;;;3.97;2.33;;;;;;;12.09;60.13;101629.16;10347827;28;20509;-77
2022/04/18 19:52:44;;;;;;;5.97;2.58;;;;;;;11.98;60.17;101632.81;10346270;28;20034;-77
2022/04/18 19:57:45;;;;;;;5.38;2.88;;;;;;;11.88;60.64;101642.53;10346648;28;20039;-77
2022/04/18 20:02:46;;;;;;;5.45;2.95;;;;;;;11.78;61.20;101638.72;10346337;28;20469;-80
2022/04/18 20:07:46;;;;;;;7.00;3.15;;;;;;;11.63;61.13;101628.19;10344592;28;20027;-77
2022/04/18 20:12:51;;;;;;;6.80;3.83;;;;;;;11.43;61.59;101621.16;10344111;28;20050;-77
2022/04/18 20:17:51;;;;;;;5.38;3.42;;;;;;;11.42;63.20;101640.69;10344140;28;20486;-77
2022/04/18 20:22:53;;;;;;;4.50;3.40;;;;;;;11.28;64.29;101635.41;10345522;28;20022;-77
2022/04/18 20:27:54;;;;;;;5.85;3.90;;;;;;;11.15;64.13;101632.09;10345930;28;20362;-77
2022/04/18 20:32:55;;;;;;;6.93;3.40;;;;;;;10.95;65.47;101616.72;10345240;28;20426;-77
2022/04/18 20:37:55;;;;;;;7.13;4.60;;;;;;;10.92;65.98;101631.00;10343837;28;20023;-77
2022/04/18 20:42:56;;;;;;;6.32;3.63;;;;;;;10.80;66.87;101627.38;10317903;28;20066;-77
2022/04/18 20:47:56;;;;;;;6.38;4.05;;;;;;;10.61;68.28;101619.22;10303995;28;20050;-76
2022/04/18 20:58:31;;;;;;;7.40;3.90;;;;;;;10.34;68.95;101632.56;10304898;28;20055;-78
2022/04/18 21:03:31;;;;;;;10.57;3.67;;;;;;;10.20;69.65;101637.38;10307029;28;20031;-77
2022/04/18 21:08:32;;;;;;;6.75;4.03;;;;;;;10.06;71.40;101641.38;10305014;28;20043;-77
2022/04/18 21:13:33;;;;;;;8.38;4.20;;;;;;;9.87;72.69;101629.56;10305809;28;20047;-77
2022/04/18 21:18:33;;;;;;;9.80;5.55;;;;;;;9.74;74.65;101638.81;10305733;28;20050;-77
2022/04/18 21:23:37;;;;;;;7.70;4.65;;;;;;;9.59;75.79;101638.34;10304415;28;20043;-77
2022/04/18 21:28:40;;;;;;;7.05;3.58;;;;;;;9.42;77.80;101647.19;10304727;28;20038;-77
2022/04/18 21:33:42;;;;;;;8.02;4.20;;;;;;;9.25;80.21;101638.72;10306413;28;20055;-77
2022/04/18 21:38:43;;;;;;;9.73;4.60;;;;;;;8.83;80.30;101590.97;10305607;28;20057;-78
2022/04/18 21:43:43;;;;;;;7.53;3.83;;;;;;;9.00;82.07;101638.75;10303612;28;20031;-77
2022/04/18 21:48:47;;;;;;;10.35;4.93;;;;;;;8.91;84.16;101642.00;10331735;28;20570;-77
2022/04/18 21:53:47;;;;;;;6.93;4.40;;;;;;;8.79;84.91;101647.38;10321148;28;20045;-77
2022/04/18 21:58:48;;;;;;;7.90;5.00;;;;;;;8.66;87.13;101643.69;10312002;28;20038;-77
2022/04/18 22:03:48;;;;;;;9.10;5.07;;;;;;;8.57;88.78;101645.00;10326611;28;20022;-77
2022/04/18 22:08:49;;;;;;;8.23;4.47;;;;;;;8.48;89.82;101646.34;10352690;28;20030;-77
2022/04/18 22:13:49;;;;;;;9.95;4.63;;;;;;;8.37;90.59;101636.03;10351992;28;20061;-77
2022/04/18 22:29:29;;;;;;;6.45;4.30;;;;;;;8.10;92.35;101630.69;10350881;28;20038;-76
2022/04/18 22:34:29;;;;;;;9.80;4.70;;;;;;;7.94;93.70;101623.84;10352178;28;20038;-76
2022/04/18 22:39:30;;;;;;;9.88;4.75;;;;;;;7.83;94.33;101619.88;10350176;28;20026;-77
2022/04/18 22:44:32;;;;;;;6.18;3.95;;;;;;;7.85;95.24;101628.75;10349450;28;20033;-76
2022/04/18 22:49:32;;;;;;;8.60;4.65;;;;;;;7.81;95.66;101635.72;10350928;28;20037;-76
2022/04/18 22:54:33;;;;;;;8.68;5.13;;;;;;;7.72;95.58;101627.94;10327229;28;20038;-77
2022/04/18 22:59:37;;;;;;;10.00;5.53;;;;;;;7.72;98.60;101638.91;10309252;28;20038;-77
2022/04/18 23:04:40;;;;;;;7.57;5.20;;;;;;;7.66;100.00;101651.56;10309605;28;20043;-77
2022/04/18 23:09:40;;;;;;;8.35;5.20;;;;;;;7.58;100.00;101627.13;10308015;28;20031;-77
2022/04/18 23:14:41;;;;;;;9.88;5.35;;;;;;;7.58;100.00;101625.22;10278951;28;20039;-77
2022/04/18 23:19:41;;;;;;;8.07;5.03;;;;;;;7.59;100.00;101631.56;10309538;28;20054;-77
2022/04/18 23:24:42;;;;;;;8.95;4.93;;;;;;;7.60;100.00;101631.34;10309422;28;20031;-76
2022/04/18 23:29:42;;;;;;;9.80;5.32;;;;;;;7.59;100.00;101631.56;10310243;28;20518;-77
2022/04/18 23:34:42;;;;;;;10.52;5.75;;;;;;;7.41;100.00;101588.41;10326154;28;20506;-76
2022/04/18 23:45:02;;;;;;;9.25;5.82;;;;;;;7.26;100.00;101553.06;10348524;28;20034;-77
2022/04/18 23:55:22;;;;;;;10.45;5.78;;;;;;;7.56;100.00;101604.59;10349559;28;20041;-77
